Time;durP1;ratioP1;P1;durP2;ratioP2;P2;SDS_P1;SDS_P2;PMS_P1;PMS_P2;Temp;Humidity;BMP_temperature;BMP_pressure;BME280_temperature;BME280_humidity;BME280_pressure;Samples;Min_cycle;Max_cycle;Signal;HPM_P1;HPM_P2
2023/10/17 00:04:47;;;;;;;;;18.00;13.75;;;;;;;;6489185;47;8837;-59
2023/10/17 00:10:51;;;;;;;;;16.00;13.75;;;;;;;;6489510;39;8873;-60
2023/10/17 00:16:57;;;;;;;;;18.75;15.25;;;;;;;;6490399;39;9727;-60
2023/10/17 00:23:00;;;;;;;;;16.25;13.75;;;;;;;;6488971;39;8908;-59
2023/10/17 00:29:10;;;;;;;;;17.75;16.00;;;;;;;;6488994;47;8911;-59
2023/10/17 00:35:19;;;;;;;;;15.00;13.00;;;;;;;;6489221;39;9626;-59
2023/10/17 00:41:47;;;;;;;;;18.00;16.75;;;;;;;;6489610;31;8857;-59
2023/10/17 00:47:51;;;;;;;;;17.00;15.25;;;;;;;;6488937;31;8912;-61
2023/10/17 00:54:00;;;;;;;;;15.25;15.25;;;;;;;;6491613;39;8857;-58
2023/10/17 01:00:11;;;;;;;;;16.33;14.67;;;;;;;;6491456;39;8881;-59
2023/10/17 01:06:37;;;;;;;;;17.00;15.25;;;;;;;;6490252;39;9054;-59
2023/10/17 01:13:02;;;;;;;;;10.50;10.50;;;;;;;;6490664;39;8991;-58
2023/10/17 01:19:11;;;;;;;;;14.50;14.50;;;;;;;;6490688;39;8956;-58
2023/10/17 01:25:29;;;;;;;;;10.00;10.00;;;;;;;;6489793;46;8876;-60
2023/10/17 01:31:38;;;;;;;;;9.75;9.75;;;;;;;;6490359;46;8887;-59
2023/10/17 01:37:43;;;;;;;;;12.75;12.75;;;;;;;;6490674;39;8907;-60
2023/10/17 01:43:49;;;;;;;;;14.50;11.75;;;;;;;;6490238;31;9032;-61
2023/10/17 01:49:51;;;;;;;;;22.00;20.75;;;;;;;;6490381;39;8952;-62
2023/10/17 01:56:06;;;;;;;;;17.75;17.00;;;;;;;;6491093;46;8873;-59
2023/10/17 02:02:12;;;;;;;;;20.50;17.00;;;;;;;;6490065;39;8963;-60
2023/10/17 02:08:21;;;;;;;;;18.75;18.75;;;;;;;;6491272;31;8852;-61
2023/10/17 02:14:25;;;;;;;;;23.25;21.25;;;;;;;;6489541;39;8997;-59
2023/10/17 02:26:31;;;;;;;;;26.25;22.25;;;;;;;;6488543;46;8887;-60
2023/10/17 02:32:34;;;;;;;;;22.00;21.50;;;;;;;;6489488;46;8935;-59
2023/10/17 02:38:37;;;;;;;;;24.00;21.25;;;;;;;;6489883;46;8836;-59
2023/10/17 02:44:43;;;;;;;;;23.25;20.00;;;;;;;;6489966;39;8877;-60
2023/10/17 02:50:58;;;;;;;;;23.25;21.00;;;;;;;;6489485;31;8931;-59
2023/10/17 02:57:02;;;;;;;;;13.25;13.00;;;;;;;;6488613;46;8935;-59
2023/10/17 03:03:12;;;;;;;;;19.00;18.00;;;;;;;;6489317;39;8873;-62
2023/10/17 03:15:29;;;;;;;;;23.75;20.00;;;;;;;;6489408;39;8899;-59
2023/10/17 03:21:35;;;;;;;;;28.00;23.00;;;;;;;;6489371;39;8897;-60
2023/10/17 03:27:48;;;;;;;;;19.75;18.00;;;;;;;;6489677;46;8865;-61
2023/10/17 03:33:51;;;;;;;;;21.25;20.50;;;;;;;;6489984;39;8904;-61
2023/10/17 03:39:56;;;;;;;;;23.75;22.25;;;;;;;;6488552;39;8889;-61
2023/10/17 03:46:04;;;;;;;;;20.75;20.25;;;;;;;;6489127;46;8901;-60
2023/10/17 03:52:07;;;;;;;;;26.75;21.75;;;;;;;;6490044;39;9580;-60
2023/10/17 03:58:57;;;;;;;;;22.50;21.25;;;;;;;;6488983;39;9517;-59
2023/10/17 04:04:36;;;;;;;;;21.00;18.50;;;;;;;;6488816;46;8905;-58
2023/10/17 04:10:47;;;;;;;;;26.50;21.25;;;;;;;;6489766;39;8921;-59
2023/10/17 04:16:50;;;;;;;;;22.00;19.75;;;;;;;;6488829;47;8912;-61
2023/10/17 04:22:52;;;;;;;;;26.75;24.25;;;;;;;;6490292;39;9015;-60
2023/10/17 04:28:55;;;;;;;;;26.75;24.50;;;;;;;;6490332;39;8892;-61
2023/10/17 04:34:59;;;;;;;;;28.75;24.25;;;;;;;;6488817;31;8912;-58
2023/10/17 04:41:17;;;;;;;;;22.00;19.50;;;;;;;;6490528;31;8938;-59
2023/10/17 04:53:28;;;;;;;;;25.75;24.25;;;;;;;;6490148;46;8954;-59
